sensor_id;sensor_type;location;lat;lon;timestamp;P1;durP1;ratioP1;P2;durP2;ratioP2
79308;SDS011;68767;53.078;7.386;2024-02-15T00:02:23;38.65;;;14.27;;
79308;SDS011;68767;53.078;7.386;2024-02-15T00:04:50;42.17;;;13.98;;
79308;SDS011;68767;53.078;7.386;2024-02-15T00:07:17;42.75;;;12.95;;
79308;SDS011;68767;53.078;7.386;2024-02-15T00:09:49;43.83;;;13.88;;
79308;SDS011;68767;53.078;7.386;2024-02-15T00:12:16;41.13;;;13.52;;
79308;SDS011;68767;53.078;7.386;2024-02-15T00:14:43;33.00;;;12.00;;
79308;SDS011;68767;53.078;7.386;2024-02-15T00:17:10;41.67;;;13.73;;
79308;SDS011;68767;53.078;7.386;2024-02-15T00:19:38;36.38;;;13.75;;
79308;SDS011;68767;53.078;7.386;2024-02-15T00:22:09;47.97;;;16.52;;
79308;SDS011;68767;53.078;7.386;2024-02-15T00:24:37;47.85;;;14.75;;
79308;SDS011;68767;53.078;7.386;2024-02-15T00:27:05;39.35;;;15.18;;
79308;SDS011;68767;53.078;7.386;2024-02-15T00:29:32;40.08;;;14.77;;
79308;SDS011;68767;53.078;7.386;2024-02-15T00:32:01;48.78;;;14.80;;
79308;SDS011;68767;53.078;7.386;2024-02-15T00:34:31;44.42;;;15.55;;
79308;SDS011;68767;53.078;7.386;2024-02-15T00:36:59;52.25;;;15.90;;
79308;SDS011;68767;53.078;7.386;2024-02-15T00:39:26;46.92;;;15.50;;
79308;SDS011;68767;53.078;7.386;2024-02-15T00:41:53;44.45;;;15.48;;
79308;SDS011;68767;53.078;7.386;2024-02-15T00:44:22;50.80;;;15.63;;
79308;SDS011;68767;53.078;7.386;2024-02-15T00:46:49;43.80;;;15.48;;
79308;SDS011;68767;53.078;7.386;2024-02-15T00:49:16;50.63;;;15.43;;
79308;SDS011;68767;53.078;7.386;2024-02-15T00:51:46;50.28;;;16.17;;
79308;SDS011;68767;53.078;7.386;2024-02-15T00:54:13;54.33;;;15.88;;
79308;SDS011;68767;53.078;7.386;2024-02-15T00:56:40;48.65;;;15.80;;
79308;SDS011;68767;53.078;7.386;2024-02-15T00:59:08;44.20;;;14.10;;
79308;SDS011;68767;53.078;7.386;2024-02-15T01:01:34;47.05;;;15.73;;
79308;SDS011;68767;53.078;7.386;2024-02-15T01:06:31;38.47;;;13.98;;
79308;SDS011;68767;53.078;7.386;2024-02-15T01:08:59;48.50;;;17.15;;
79308;SDS011;68767;53.078;7.386;2024-02-15T01:11:30;40.72;;;15.85;;
79308;SDS011;68767;53.078;7.386;2024-02-15T01:14:02;46.95;;;16.58;;
79308;SDS011;68767;53.078;7.386;2024-02-15T01:16:29;46.63;;;15.95;;
79308;SDS011;68767;53.078;7.386;2024-02-15T01:18:56;45.95;;;14.77;;
79308;SDS011;68767;53.078;7.386;2024-02-15T01:21:23;49.53;;;16.85;;
79308;SDS011;68767;53.078;7.386;2024-02-15T01:23:50;44.38;;;15.13;;
79308;SDS011;68767;53.078;7.386;2024-02-15T01:26:20;44.58;;;14.52;;
79308;SDS011;68767;53.078;7.386;2024-02-15T01:28:47;51.40;;;16.48;;
79308;SDS011;68767;53.078;7.386;2024-02-15T01:31:14;50.47;;;17.00;;
79308;SDS011;68767;53.078;7.386;2024-02-15T01:33:44;47.83;;;15.93;;
79308;SDS011;68767;53.078;7.386;2024-02-15T01:36:14;53.53;;;17.35;;
79308;SDS011;68767;53.078;7.386;2024-02-15T01:38:42;40.63;;;13.85;;
79308;SDS011;68767;53.078;7.386;2024-02-15T01:41:09;49.08;;;15.27;;
79308;SDS011;68767;53.078;7.386;2024-02-15T01:43:36;44.67;;;15.65;;
79308;SDS011;68767;53.078;7.386;2024-02-15T01:46:12;41.58;;;14.65;;
79308;SDS011;68767;53.078;7.386;2024-02-15T01:48:41;46.50;;;15.93;;
79308;SDS011;68767;53.078;7.386;2024-02-15T01:51:09;37.40;;;13.60;;
79308;SDS011;68767;53.078;7.386;2024-02-15T01:53:40;43.53;;;15.40;;
79308;SDS011;68767;53.078;7.386;2024-02-15T01:56:12;42.95;;;16.00;;
79308;SDS011;68767;53.078;7.386;2024-02-15T01:58:41;46.33;;;13.88;;
79308;SDS011;68767;53.078;7.386;2024-02-15T02:01:09;45.75;;;13.85;;
79308;SDS011;68767;53.078;7.386;2024-02-15T02:03:38;41.78;;;14.45;;
79308;SDS011;68767;53.078;7.386;2024-02-15T02:06:06;42.65;;;13.57;;
79308;SDS011;68767;53.078;7.386;2024-02-15T02:08:34;50.25;;;18.30;;
79308;SDS011;68767;53.078;7.386;2024-02-15T02:11:01;38.67;;;12.88;;
79308;SDS011;68767;53.078;7.386;2024-02-15T02:13:28;38.17;;;13.77;;
79308;SDS011;68767;53.078;7.386;2024-02-15T02:15:57;39.97;;;13.35;;
79308;SDS011;68767;53.078;7.386;2024-02-15T02:18:26;32.58;;;10.52;;
79308;SDS011;68767;53.078;7.386;2024-02-15T02:20:53;36.92;;;12.23;;
79308;SDS011;68767;53.078;7.386;2024-02-15T02:23:21;42.97;;;12.57;;
79308;SDS011;68767;53.078;7.386;2024-02-15T02:25:53;31.85;;;12.95;;
79308;SDS011;68767;53.078;7.386;2024-02-15T02:28:22;25.17;;;8.32;;
79308;SDS011;68767;53.078;7.386;2024-02-15T02:30:49;31.00;;;12.27;;
79308;SDS011;68767;53.078;7.386;2024-02-15T02:33:17;35.67;;;12.38;;
79308;SDS011;68767;53.078;7.386;2024-02-15T02:35:50;34.22;;;10.30;;
79308;SDS011;68767;53.078;7.386;2024-02-15T02:38:17;36.22;;;11.68;;
79308;SDS011;68767;53.078;7.386;2024-02-15T02:40:44;35.72;;;11.55;;
79308;SDS011;68767;53.078;7.386;2024-02-15T02:43:11;34.50;;;11.10;;
79308;SDS011;68767;53.078;7.386;2024-02-15T02:45:38;30.85;;;11.25;;
79308;SDS011;68767;53.078;7.386;2024-02-15T02:48:05;36.85;;;11.85;;
79308;SDS011;68767;53.078;7.386;2024-02-15T02:50:33;40.25;;;12.38;;
79308;SDS011;68767;53.078;7.386;2024-02-15T02:53:01;32.53;;;11.52;;
79308;SDS011;68767;53.078;7.386;2024-02-15T02:55:28;27.23;;;10.77;;
79308;SDS011;68767;53.078;7.386;2024-02-15T02:57:56;30.33;;;10.90;;
79308;SDS011;68767;53.078;7.386;2024-02-15T03:00:23;34.15;;;12.00;;
79308;SDS011;68767;53.078;7.386;2024-02-15T03:02:50;35.75;;;11.50;;
79308;SDS011;68767;53.078;7.386;2024-02-15T03:05:17;40.78;;;12.18;;
79308;SDS011;68767;53.078;7.386;2024-02-15T03:07:48;42.42;;;13.20;;
79308;SDS011;68767;53.078;7.386;2024-02-15T03:10:15;45.42;;;16.52;;
79308;SDS011;68767;53.078;7.386;2024-02-15T03:12:43;100.80;;;37.35;;
79308;SDS011;68767;53.078;7.386;2024-02-15T03:15:15;32.88;;;10.02;;
79308;SDS011;68767;53.078;7.386;2024-02-15T03:17:45;36.95;;;12.18;;
79308;SDS011;68767;53.078;7.386;2024-02-15T03:20:14;40.75;;;11.88;;
79308;SDS011;68767;53.078;7.386;2024-02-15T03:22:57;35.47;;;11.75;;
79308;SDS011;68767;53.078;7.386;2024-02-15T03:25:25;35.75;;;12.10;;
79308;SDS011;68767;53.078;7.386;2024-02-15T03:27:54;48.20;;;13.23;;
79308;SDS011;68767;53.078;7.386;2024-02-15T03:30:23;50.00;;;17.45;;
79308;SDS011;68767;53.078;7.386;2024-02-15T03:32:53;41.28;;;12.38;;
79308;SDS011;68767;53.078;7.386;2024-02-15T03:35:22;40.25;;;12.95;;
79308;SDS011;68767;53.078;7.386;2024-02-15T03:37:52;32.88;;;11.57;;
79308;SDS011;68767;53.078;7.386;2024-02-15T03:40:19;45.05;;;13.85;;
79308;SDS011;68767;53.078;7.386;2024-02-15T03:42:47;37.40;;;12.30;;
79308;SDS011;68767;53.078;7.386;2024-02-15T03:45:14;33.42;;;11.25;;
79308;SDS011;68767;53.078;7.386;2024-02-15T03:47:41;39.08;;;12.90;;
79308;SDS011;68767;53.078;7.386;2024-02-15T03:50:08;38.88;;;12.85;;
79308;SDS011;68767;53.078;7.386;2024-02-15T03:52:41;36.85;;;11.35;;
79308;SDS011;68767;53.078;7.386;2024-02-15T03:55:10;45.70;;;12.23;;
79308;SDS011;68767;53.078;7.386;2024-02-15T03:57:38;64.95;;;21.83;;
79308;SDS011;68767;53.078;7.386;2024-02-15T04:00:10;45.50;;;14.25;;
79308;SDS011;68767;53.078;7.386;2024-02-15T04:02:38;45.72;;;13.52;;
79308;SDS011;68767;53.078;7.386;2024-02-15T04:05:08;42.17;;;13.10;;
79308;SDS011;68767;53.078;7.386;2024-02-15T04:07:38;46.95;;;14.02;;
79308;SDS011;68767;53.078;7.386;2024-02-15T04:10:05;42.70;;;13.98;;
79308;SDS011;68767;53.078;7.386;2024-02-15T04:12:33;44.15;;;12.05;;
79308;SDS011;68767;53.078;7.386;2024-02-15T04:15:00;42.13;;;14.60;;
79308;SDS011;68767;53.078;7.386;2024-02-15T04:17:32;42.22;;;12.38;;
79308;SDS011;68767;53.078;7.386;2024-02-15T04:20:02;53.00;;;13.02;;
79308;SDS011;68767;53.078;7.386;2024-02-15T04:22:31;50.83;;;13.40;;
79308;SDS011;68767;53.078;7.386;2024-02-15T04:25:04;46.03;;;13.27;;
79308;SDS011;68767;53.078;7.386;2024-02-15T04:27:33;44.85;;;13.88;;
79308;SDS011;68767;53.078;7.386;2024-02-15T04:30:01;36.20;;;12.95;;
79308;SDS011;68767;53.078;7.386;2024-02-15T04:32:29;50.15;;;16.80;;
79308;SDS011;68767;53.078;7.386;2024-02-15T04:35:01;42.05;;;13.85;;
79308;SDS011;68767;53.078;7.386;2024-02-15T04:37:29;44.55;;;15.95;;
79308;SDS011;68767;53.078;7.386;2024-02-15T04:39:59;43.55;;;15.68;;
79308;SDS011;68767;53.078;7.386;2024-02-15T04:42:35;40.38;;;15.07;;
79308;SDS011;68767;53.078;7.386;2024-02-15T04:45:07;55.40;;;16.65;;
79308;SDS011;68767;53.078;7.386;2024-02-15T04:47:35;49.10;;;15.68;;
79308;SDS011;68767;53.078;7.386;2024-02-15T04:50:03;46.25;;;15.90;;
79308;SDS011;68767;53.078;7.386;2024-02-15T04:55:00;50.45;;;17.10;;
79308;SDS011;68767;53.078;7.386;2024-02-15T04:57:28;57.78;;;15.80;;
79308;SDS011;68767;53.078;7.386;2024-02-15T04:59:55;47.50;;;16.08;;
79308;SDS011;68767;53.078;7.386;2024-02-15T05:02:22;49.13;;;16.60;;
79308;SDS011;68767;53.078;7.386;2024-02-15T05:04:52;48.38;;;17.42;;
79308;SDS011;68767;53.078;7.386;2024-02-15T05:07:23;49.72;;;16.25;;
79308;SDS011;68767;53.078;7.386;2024-02-15T05:09:50;57.80;;;19.70;;
79308;SDS011;68767;53.078;7.386;2024-02-15T05:12:22;57.45;;;17.80;;
79308;SDS011;68767;53.078;7.386;2024-02-15T05:14:53;54.05;;;17.48;;
79308;SDS011;68767;53.078;7.386;2024-02-15T05:17:20;51.20;;;16.92;;
79308;SDS011;68767;53.078;7.386;2024-02-15T05:19:49;56.80;;;18.63;;
79308;SDS011;68767;53.078;7.386;2024-02-15T05:22:17;48.10;;;17.02;;
79308;SDS011;68767;53.078;7.386;2024-02-15T05:24:45;61.80;;;19.92;;
79308;SDS011;68767;53.078;7.386;2024-02-15T05:27:12;43.03;;;16.88;;
79308;SDS011;68767;53.078;7.386;2024-02-15T05:29:39;47.58;;;18.17;;
79308;SDS011;68767;53.078;7.386;2024-02-15T05:32:10;54.85;;;17.73;;
79308;SDS011;68767;53.078;7.386;2024-02-15T05:34:37;51.30;;;18.60;;
79308;SDS011;68767;53.078;7.386;2024-02-15T05:39:34;49.72;;;17.67;;
79308;SDS011;68767;53.078;7.386;2024-02-15T05:42:01;55.40;;;17.45;;
79308;SDS011;68767;53.078;7.386;2024-02-15T05:44:28;51.70;;;17.45;;
79308;SDS011;68767;53.078;7.386;2024-02-15T05:46:55;46.22;;;17.48;;
79308;SDS011;68767;53.078;7.386;2024-02-15T05:49:23;46.65;;;16.55;;
79308;SDS011;68767;53.078;7.386;2024-02-15T05:51:50;51.17;;;16.42;;
79308;SDS011;68767;53.078;7.386;2024-02-15T05:54:20;56.92;;;18.55;;
79308;SDS011;68767;53.078;7.386;2024-02-15T05:56:50;52.28;;;18.80;;
79308;SDS011;68767;53.078;7.386;2024-02-15T05:59:19;46.92;;;17.75;;
79308;SDS011;68767;53.078;7.386;2024-02-15T06:01:47;44.05;;;17.15;;
79308;SDS011;68767;53.078;7.386;2024-02-15T06:04:17;47.97;;;15.90;;
79308;SDS011;68767;53.078;7.386;2024-02-15T06:06:45;45.42;;;17.50;;
79308;SDS011;68767;53.078;7.386;2024-02-15T06:09:16;50.55;;;17.98;;
79308;SDS011;68767;53.078;7.386;2024-02-15T06:11:44;53.20;;;19.15;;
79308;SDS011;68767;53.078;7.386;2024-02-15T06:14:12;51.80;;;19.63;;
79308;SDS011;68767;53.078;7.386;2024-02-15T06:16:43;50.50;;;18.85;;
79308;SDS011;68767;53.078;7.386;2024-02-15T06:19:10;58.55;;;20.33;;
79308;SDS011;68767;53.078;7.386;2024-02-15T06:21:38;47.85;;;18.08;;
79308;SDS011;68767;53.078;7.386;2024-02-15T06:24:05;44.58;;;17.33;;
79308;SDS011;68767;53.078;7.386;2024-02-15T06:26:32;56.28;;;19.23;;
79308;SDS011;68767;53.078;7.386;2024-02-15T06:29:00;49.08;;;19.65;;
79308;SDS011;68767;53.078;7.386;2024-02-15T06:31:46;50.08;;;18.58;;
79308;SDS011;68767;53.078;7.386;2024-02-15T06:34:31;58.97;;;20.60;;
79308;SDS011;68767;53.078;7.386;2024-02-15T06:37:35;50.47;;;19.73;;
79308;SDS011;68767;53.078;7.386;2024-02-15T06:40:22;50.40;;;19.88;;
79308;SDS011;68767;53.078;7.386;2024-02-15T06:42:49;54.17;;;19.95;;
79308;SDS011;68767;53.078;7.386;2024-02-15T06:45:16;43.42;;;17.67;;
79308;SDS011;68767;53.078;7.386;2024-02-15T06:47:45;55.17;;;20.63;;
79308;SDS011;68767;53.078;7.386;2024-02-15T06:50:12;54.05;;;19.65;;
79308;SDS011;68767;53.078;7.386;2024-02-15T06:52:40;53.10;;;20.25;;
79308;SDS011;68767;53.078;7.386;2024-02-15T06:55:07;49.22;;;19.65;;
79308;SDS011;68767;53.078;7.386;2024-02-15T06:57:35;48.60;;;20.10;;
79308;SDS011;68767;53.078;7.386;2024-02-15T07:00:05;51.40;;;20.83;;
79308;SDS011;68767;53.078;7.386;2024-02-15T07:02:36;40.13;;;16.60;;
79308;SDS011;68767;53.078;7.386;2024-02-15T07:05:03;50.17;;;18.77;;
79308;SDS011;68767;53.078;7.386;2024-02-15T07:07:31;52.90;;;18.88;;
79308;SDS011;68767;53.078;7.386;2024-02-15T07:09:58;54.45;;;20.10;;
79308;SDS011;68767;53.078;7.386;2024-02-15T07:12:25;51.53;;;21.08;;
79308;SDS011;68767;53.078;7.386;2024-02-15T07:14:52;57.20;;;19.60;;
79308;SDS011;68767;53.078;7.386;2024-02-15T07:17:21;47.38;;;20.08;;
79308;SDS011;68767;53.078;7.386;2024-02-15T07:19:48;54.05;;;20.30;;
79308;SDS011;68767;53.078;7.386;2024-02-15T07:24:45;45.33;;;18.90;;
79308;SDS011;68767;53.078;7.386;2024-02-15T07:27:12;44.10;;;19.13;;
79308;SDS011;68767;53.078;7.386;2024-02-15T07:29:39;51.50;;;20.17;;
79308;SDS011;68767;53.078;7.386;2024-02-15T07:32:07;51.13;;;20.10;;
79308;SDS011;68767;53.078;7.386;2024-02-15T07:34:35;48.85;;;19.20;;
79308;SDS011;68767;53.078;7.386;2024-02-15T07:37:03;44.35;;;18.45;;
79308;SDS011;68767;53.078;7.386;2024-02-15T07:39:30;46.58;;;18.52;;
79308;SDS011;68767;53.078;7.386;2024-02-15T07:41:57;42.13;;;17.92;;
79308;SDS011;68767;53.078;7.386;2024-02-15T07:44:27;45.83;;;18.67;;
79308;SDS011;68767;53.078;7.386;2024-02-15T07:46:56;49.17;;;18.48;;
79308;SDS011;68767;53.078;7.386;2024-02-15T07:49:23;51.33;;;19.48;;
79308;SDS011;68767;53.078;7.386;2024-02-15T07:51:51;55.63;;;18.67;;
79308;SDS011;68767;53.078;7.386;2024-02-15T07:54:20;44.95;;;18.33;;
79308;SDS011;68767;53.078;7.386;2024-02-15T07:56:50;35.42;;;14.85;;
79308;SDS011;68767;53.078;7.386;2024-02-15T07:59:17;47.92;;;18.30;;
79308;SDS011;68767;53.078;7.386;2024-02-15T08:01:44;47.15;;;17.20;;
79308;SDS011;68767;53.078;7.386;2024-02-15T08:04:17;47.65;;;18.63;;
79308;SDS011;68767;53.078;7.386;2024-02-15T08:06:45;46.05;;;16.75;;
79308;SDS011;68767;53.078;7.386;2024-02-15T08:09:12;40.58;;;16.77;;
79308;SDS011;68767;53.078;7.386;2024-02-15T08:11:41;52.08;;;17.50;;
79308;SDS011;68767;53.078;7.386;2024-02-15T08:14:08;43.80;;;18.50;;
79308;SDS011;68767;53.078;7.386;2024-02-15T08:16:39;40.72;;;17.65;;
79308;SDS011;68767;53.078;7.386;2024-02-15T08:19:08;44.83;;;18.23;;
79308;SDS011;68767;53.078;7.386;2024-02-15T08:21:37;45.50;;;18.25;;
79308;SDS011;68767;53.078;7.386;2024-02-15T08:24:04;41.33;;;18.02;;
79308;SDS011;68767;53.078;7.386;2024-02-15T08:26:36;40.95;;;17.35;;
79308;SDS011;68767;53.078;7.386;2024-02-15T08:29:10;44.35;;;18.23;;
79308;SDS011;68767;53.078;7.386;2024-02-15T08:31:38;41.55;;;17.63;;
79308;SDS011;68767;53.078;7.386;2024-02-15T08:34:05;37.17;;;16.35;;
79308;SDS011;68767;53.078;7.386;2024-02-15T08:36:33;39.17;;;17.30;;
79308;SDS011;68767;53.078;7.386;2024-02-15T08:39:00;41.22;;;16.30;;
79308;SDS011;68767;53.078;7.386;2024-02-15T08:41:28;48.15;;;17.38;;
79308;SDS011;68767;53.078;7.386;2024-02-15T08:43:55;47.63;;;17.00;;
79308;SDS011;68767;53.078;7.386;2024-02-15T08:46:27;40.80;;;18.13;;
79308;SDS011;68767;53.078;7.386;2024-02-15T08:48:54;41.63;;;16.30;;
79308;SDS011;68767;53.078;7.386;2024-02-15T08:51:21;44.72;;;16.80;;
79308;SDS011;68767;53.078;7.386;2024-02-15T08:53:50;41.17;;;17.38;;
79308;SDS011;68767;53.078;7.386;2024-02-15T08:56:18;36.42;;;14.60;;
79308;SDS011;68767;53.078;7.386;2024-02-15T08:58:45;43.00;;;16.58;;
79308;SDS011;68767;53.078;7.386;2024-02-15T09:01:13;42.00;;;16.08;;
79308;SDS011;68767;53.078;7.386;2024-02-15T09:03:40;37.55;;;15.65;;
79308;SDS011;68767;53.078;7.386;2024-02-15T09:06:08;43.90;;;16.15;;
79308;SDS011;68767;53.078;7.386;2024-02-15T09:08:35;44.25;;;16.48;;
79308;SDS011;68767;53.078;7.386;2024-02-15T09:11:02;37.08;;;14.95;;
79308;SDS011;68767;53.078;7.386;2024-02-15T09:18:27;38.67;;;14.68;;
79308;SDS011;68767;53.078;7.386;2024-02-15T09:20:54;33.28;;;14.40;;
79308;SDS011;68767;53.078;7.386;2024-02-15T09:23:22;39.55;;;14.95;;
79308;SDS011;68767;53.078;7.386;2024-02-15T09:25:50;33.35;;;14.73;;
79308;SDS011;68767;53.078;7.386;2024-02-15T09:28:18;36.70;;;14.55;;
79308;SDS011;68767;53.078;7.386;2024-02-15T09:30:51;33.88;;;14.02;;
79308;SDS011;68767;53.078;7.386;2024-02-15T09:33:19;46.10;;;15.35;;
79308;SDS011;68767;53.078;7.386;2024-02-15T09:35:47;28.30;;;14.18;;
79308;SDS011;68767;53.078;7.386;2024-02-15T09:38:14;30.17;;;13.40;;
79308;SDS011;68767;53.078;7.386;2024-02-15T09:40:44;31.70;;;13.27;;
79308;SDS011;68767;53.078;7.386;2024-02-15T09:43:19;30.23;;;12.20;;
79308;SDS011;68767;53.078;7.386;2024-02-15T09:45:46;32.85;;;10.90;;
79308;SDS011;68767;53.078;7.386;2024-02-15T09:48:14;26.58;;;11.57;;
79308;SDS011;68767;53.078;7.386;2024-02-15T09:50:45;30.40;;;12.07;;
79308;SDS011;68767;53.078;7.386;2024-02-15T09:53:14;28.90;;;12.85;;
79308;SDS011;68767;53.078;7.386;2024-02-15T09:55:42;28.75;;;12.63;;
79308;SDS011;68767;53.078;7.386;2024-02-15T09:58:09;25.58;;;12.10;;
79308;SDS011;68767;53.078;7.386;2024-02-15T10:00:39;30.42;;;13.57;;
79308;SDS011;68767;53.078;7.386;2024-02-15T10:03:07;37.03;;;13.40;;
79308;SDS011;68767;53.078;7.386;2024-02-15T10:05:37;19.05;;;9.60;;
79308;SDS011;68767;53.078;7.386;2024-02-15T10:08:06;32.53;;;12.82;;
79308;SDS011;68767;53.078;7.386;2024-02-15T10:10:34;25.52;;;11.32;;
79308;SDS011;68767;53.078;7.386;2024-02-15T10:13:02;24.67;;;12.35;;
79308;SDS011;68767;53.078;7.386;2024-02-15T10:15:30;29.08;;;12.43;;
79308;SDS011;68767;53.078;7.386;2024-02-15T10:20:32;28.45;;;13.82;;
79308;SDS011;68767;53.078;7.386;2024-02-15T10:25:30;30.00;;;12.75;;
79308;SDS011;68767;53.078;7.386;2024-02-15T10:28:10;24.15;;;12.30;;
79308;SDS011;68767;53.078;7.386;2024-02-15T10:30:39;25.88;;;11.80;;
79308;SDS011;68767;53.078;7.386;2024-02-15T10:33:10;25.45;;;12.57;;
79308;SDS011;68767;53.078;7.386;2024-02-15T10:35:48;26.58;;;11.52;;
79308;SDS011;68767;53.078;7.386;2024-02-15T10:38:15;23.85;;;11.68;;
79308;SDS011;68767;53.078;7.386;2024-02-15T10:40:45;19.83;;;11.40;;
79308;SDS011;68767;53.078;7.386;2024-02-15T10:43:13;24.98;;;10.93;;
79308;SDS011;68767;53.078;7.386;2024-02-15T10:45:43;24.80;;;11.35;;
79308;SDS011;68767;53.078;7.386;2024-02-15T10:48:11;22.48;;;10.25;;
79308;SDS011;68767;53.078;7.386;2024-02-15T10:50:40;20.90;;;10.90;;
79308;SDS011;68767;53.078;7.386;2024-02-15T10:53:30;22.77;;;9.73;;
79308;SDS011;68767;53.078;7.386;2024-02-15T10:56:01;24.63;;;11.02;;
79308;SDS011;68767;53.078;7.386;2024-02-15T10:58:33;19.50;;;9.45;;
79308;SDS011;68767;53.078;7.386;2024-02-15T11:01:06;16.20;;;9.15;;
79308;SDS011;68767;53.078;7.386;2024-02-15T11:03:36;22.38;;;10.07;;
79308;SDS011;68767;53.078;7.386;2024-02-15T11:06:14;17.67;;;8.75;;
79308;SDS011;68767;53.078;7.386;2024-02-15T11:08:42;15.45;;;9.13;;
79308;SDS011;68767;53.078;7.386;2024-02-15T11:11:11;17.33;;;10.35;;
79308;SDS011;68767;53.078;7.386;2024-02-15T11:13:42;19.70;;;9.70;;
79308;SDS011;68767;53.078;7.386;2024-02-15T11:16:31;19.13;;;8.48;;
79308;SDS011;68767;53.078;7.386;2024-02-15T11:19:10;18.35;;;8.65;;
79308;SDS011;68767;53.078;7.386;2024-02-15T11:22:07;22.38;;;9.52;;
79308;SDS011;68767;53.078;7.386;2024-02-15T11:24:45;15.05;;;8.82;;
79308;SDS011;68767;53.078;7.386;2024-02-15T11:27:23;18.17;;;9.15;;
79308;SDS011;68767;53.078;7.386;2024-02-15T11:29:54;15.45;;;9.07;;
79308;SDS011;68767;53.078;7.386;2024-02-15T11:35:19;16.42;;;7.95;;
79308;SDS011;68767;53.078;7.386;2024-02-15T11:37:52;18.88;;;8.20;;
79308;SDS011;68767;53.078;7.386;2024-02-15T11:40:22;14.05;;;8.00;;
79308;SDS011;68767;53.078;7.386;2024-02-15T11:42:51;16.13;;;9.30;;
79308;SDS011;68767;53.078;7.386;2024-02-15T11:45:25;14.07;;;8.05;;
79308;SDS011;68767;53.078;7.386;2024-02-15T11:47:53;13.85;;;7.40;;
79308;SDS011;68767;53.078;7.386;2024-02-15T11:50:22;17.30;;;7.65;;
79308;SDS011;68767;53.078;7.386;2024-02-15T11:52:50;17.83;;;8.48;;
79308;SDS011;68767;53.078;7.386;2024-02-15T11:55:18;14.50;;;8.05;;
79308;SDS011;68767;53.078;7.386;2024-02-15T11:57:56;14.70;;;7.38;;
79308;SDS011;68767;53.078;7.386;2024-02-15T12:00:49;16.10;;;7.50;;
79308;SDS011;68767;53.078;7.386;2024-02-15T12:03:35;13.75;;;6.88;;
79308;SDS011;68767;53.078;7.386;2024-02-15T12:06:32;14.38;;;6.57;;
79308;SDS011;68767;53.078;7.386;2024-02-15T12:09:18;12.45;;;6.78;;
79308;SDS011;68767;53.078;7.386;2024-02-15T12:12:05;11.93;;;6.28;;
79308;SDS011;68767;53.078;7.386;2024-02-15T12:14:58;13.40;;;6.53;;
79308;SDS011;68767;53.078;7.386;2024-02-15T12:17:47;9.88;;;5.70;;
79308;SDS011;68767;53.078;7.386;2024-02-15T12:20:33;10.55;;;5.60;;
79308;SDS011;68767;53.078;7.386;2024-02-15T12:23:01;9.25;;;5.13;;
79308;SDS011;68767;53.078;7.386;2024-02-15T12:25:28;10.05;;;5.30;;
79308;SDS011;68767;53.078;7.386;2024-02-15T12:28:00;10.95;;;5.50;;
79308;SDS011;68767;53.078;7.386;2024-02-15T12:30:32;10.02;;;5.22;;
79308;SDS011;68767;53.078;7.386;2024-02-15T12:33:11;6.85;;;4.57;;
79308;SDS011;68767;53.078;7.386;2024-02-15T12:35:40;9.65;;;4.78;;
79308;SDS011;68767;53.078;7.386;2024-02-15T12:38:09;7.82;;;4.82;;
79308;SDS011;68767;53.078;7.386;2024-02-15T12:40:42;10.48;;;5.35;;
79308;SDS011;68767;53.078;7.386;2024-02-15T12:43:14;8.27;;;4.88;;
79308;SDS011;68767;53.078;7.386;2024-02-15T12:45:42;8.90;;;4.97;;
79308;SDS011;68767;53.078;7.386;2024-02-15T12:48:09;7.32;;;4.40;;
79308;SDS011;68767;53.078;7.386;2024-02-15T12:50:38;6.95;;;4.68;;
79308;SDS011;68767;53.078;7.386;2024-02-15T12:53:05;8.82;;;4.50;;
79308;SDS011;68767;53.078;7.386;2024-02-15T12:55:33;9.13;;;4.82;;
79308;SDS011;68767;53.078;7.386;2024-02-15T12:58:05;9.13;;;5.22;;
79308;SDS011;68767;53.078;7.386;2024-02-15T13:00:40;7.45;;;4.25;;
79308;SDS011;68767;53.078;7.386;2024-02-15T13:03:08;9.65;;;4.85;;
79308;SDS011;68767;53.078;7.386;2024-02-15T13:05:38;6.32;;;4.03;;
79308;SDS011;68767;53.078;7.386;2024-02-15T13:08:07;8.25;;;4.43;;
79308;SDS011;68767;53.078;7.386;2024-02-15T13:10:41;6.35;;;3.60;;
79308;SDS011;68767;53.078;7.386;2024-02-15T13:13:09;10.10;;;4.38;;
79308;SDS011;68767;53.078;7.386;2024-02-15T13:15:37;8.25;;;4.18;;
79308;SDS011;68767;53.078;7.386;2024-02-15T13:18:05;6.60;;;3.72;;
79308;SDS011;68767;53.078;7.386;2024-02-15T13:20:37;6.70;;;4.00;;
79308;SDS011;68767;53.078;7.386;2024-02-15T13:23:05;10.38;;;4.32;;
79308;SDS011;68767;53.078;7.386;2024-02-15T13:25:41;8.32;;;3.88;;
79308;SDS011;68767;53.078;7.386;2024-02-15T13:28:12;7.95;;;4.47;;
79308;SDS011;68767;53.078;7.386;2024-02-15T13:30:40;7.82;;;4.45;;
79308;SDS011;68767;53.078;7.386;2024-02-15T13:33:11;10.00;;;5.05;;
79308;SDS011;68767;53.078;7.386;2024-02-15T13:35:40;10.00;;;4.95;;
79308;SDS011;68767;53.078;7.386;2024-02-15T13:38:07;9.48;;;5.00;;
79308;SDS011;68767;53.078;7.386;2024-02-15T13:40:42;9.38;;;4.95;;
79308;SDS011;68767;53.078;7.386;2024-02-15T13:43:11;6.68;;;3.17;;
79308;SDS011;68767;53.078;7.386;2024-02-15T13:45:39;9.73;;;4.88;;
79308;SDS011;68767;53.078;7.386;2024-02-15T13:48:08;8.43;;;5.05;;
79308;SDS011;68767;53.078;7.386;2024-02-15T13:50:36;9.63;;;5.15;;
79308;SDS011;68767;53.078;7.386;2024-02-15T13:53:06;6.13;;;4.03;;
79308;SDS011;68767;53.078;7.386;2024-02-15T13:55:36;11.48;;;5.10;;
79308;SDS011;68767;53.078;7.386;2024-02-15T13:58:04;12.82;;;5.90;;
79308;SDS011;68767;53.078;7.386;2024-02-15T14:00:31;8.02;;;4.97;;
79308;SDS011;68767;53.078;7.386;2024-02-15T14:03:01;12.52;;;5.85;;
79308;SDS011;68767;53.078;7.386;2024-02-15T14:05:30;8.73;;;5.07;;
79308;SDS011;68767;53.078;7.386;2024-02-15T14:07:58;10.02;;;6.22;;
79308;SDS011;68767;53.078;7.386;2024-02-15T14:10:30;13.23;;;6.18;;
79308;SDS011;68767;53.078;7.386;2024-02-15T14:12:58;9.35;;;5.45;;
79308;SDS011;68767;53.078;7.386;2024-02-15T14:15:27;9.38;;;5.45;;
79308;SDS011;68767;53.078;7.386;2024-02-15T14:17:55;14.77;;;6.65;;
79308;SDS011;68767;53.078;7.386;2024-02-15T14:20:23;13.88;;;5.95;;
79308;SDS011;68767;53.078;7.386;2024-02-15T14:22:50;13.13;;;5.95;;
79308;SDS011;68767;53.078;7.386;2024-02-15T14:25:24;13.38;;;6.07;;
79308;SDS011;68767;53.078;7.386;2024-02-15T14:27:58;11.60;;;5.97;;
79308;SDS011;68767;53.078;7.386;2024-02-15T14:30:25;14.48;;;6.55;;
79308;SDS011;68767;53.078;7.386;2024-02-15T14:33:11;14.02;;;6.55;;
79308;SDS011;68767;53.078;7.386;2024-02-15T14:35:45;12.38;;;6.75;;
79308;SDS011;68767;53.078;7.386;2024-02-15T14:38:12;14.73;;;7.40;;
79308;SDS011;68767;53.078;7.386;2024-02-15T14:40:44;16.42;;;6.57;;
79308;SDS011;68767;53.078;7.386;2024-02-15T14:43:12;17.20;;;7.28;;
79308;SDS011;68767;53.078;7.386;2024-02-15T14:45:43;12.88;;;7.70;;
79308;SDS011;68767;53.078;7.386;2024-02-15T14:48:22;14.90;;;5.35;;
79308;SDS011;68767;53.078;7.386;2024-02-15T14:51:31;16.95;;;7.82;;
79308;SDS011;68767;53.078;7.386;2024-02-15T14:54:04;13.55;;;7.50;;
79308;SDS011;68767;53.078;7.386;2024-02-15T14:56:54;13.90;;;7.47;;
79308;SDS011;68767;53.078;7.386;2024-02-15T14:59:28;16.02;;;8.38;;
79308;SDS011;68767;53.078;7.386;2024-02-15T15:02:28;17.48;;;8.30;;
79308;SDS011;68767;53.078;7.386;2024-02-15T15:05:39;16.52;;;7.53;;
79308;SDS011;68767;53.078;7.386;2024-02-15T15:08:37;16.75;;;8.07;;